DAL1402 SECU-SEQM
Flight info
| Callsign | DAL1402 |
|---|---|
| Flight time | 0h 33m |
| Altitude | 25000 |
| Route | VUTNI2 VUTNI UT5 QIT |
| Aircraft | B738/M-SDE2E3FGHIRWXY/LB1 |
Departure
| Time | 2026-05-04 20:08 |
|---|---|
| Airport | Mariscal Lamar Airport (SECU) |
Arrival
| Time | 2026-05-04 20:41 |
|---|---|
| Airport | Mariscal Sucre International Airport (SEQM) |
| Time | Latitude | Longitude | Altitude | Speed | Heading |
|---|---|---|---|---|---|
| 2026-05-04 18:23 | -2.88995 | -78.98670 | 8314 ft | 0 kts | 291° |
| 2026-05-04 20:00 | -2.88997 | -78.98666 | 8314 ft | 2 kts | 290° |
| 2026-05-04 20:00 | -2.89001 | -78.98649 | 8314 ft | 3 kts | 264° |
| 2026-05-04 20:00 | -2.88995 | -78.98630 | 8314 ft | 3 kts | 237° |
| 2026-05-04 20:01 | -2.88988 | -78.98620 | 8314 ft | 0 kts | 231° |
| 2026-05-04 20:04 | -2.88999 | -78.98634 | 8314 ft | 4 kts | 231° |
| 2026-05-04 20:04 | -2.89022 | -78.98662 | 8314 ft | 6 kts | 231° |
| 2026-05-04 20:04 | -2.89052 | -78.98701 | 8314 ft | 8 kts | 233° |
| 2026-05-04 20:05 | -2.89089 | -78.98750 | 8314 ft | 10 kts | 234° |
| 2026-05-04 20:05 | -2.89136 | -78.98808 | 8314 ft | 12 kts | 226° |
| 2026-05-04 20:05 | -2.89194 | -78.98875 | 8314 ft | 14 kts | 230° |
| 2026-05-04 20:05 | -2.89251 | -78.98946 | 8314 ft | 13 kts | 231° |
| 2026-05-04 20:06 | -2.89311 | -78.99023 | 8314 ft | 15 kts | 231° |
| 2026-05-04 20:06 | -2.89376 | -78.99099 | 8314 ft | 14 kts | 213° |
| 2026-05-04 20:06 | -2.89462 | -78.99104 | 8314 ft | 10 kts | 127° |
| 2026-05-04 20:06 | -2.89448 | -78.99067 | 8314 ft | 1 kts | 46° |
| 2026-05-04 20:07 | -2.89447 | -78.99066 | 8314 ft | 0 kts | 46° |
| 2026-05-04 20:07 | -2.89397 | -78.99012 | 8314 ft | 40 kts | 49° |
| 2026-05-04 20:07 | -2.89074 | -78.98594 | 8314 ft | 111 kts | 51° |
| 2026-05-04 20:07 | -2.88452 | -78.97801 | 8331 ft | 167 kts | 51° |
| 2026-05-04 20:08 | -2.87850 | -78.96798 | 8892 ft | 177 kts | 62° |
| 2026-05-04 20:08 | -2.87242 | -78.95661 | 9484 ft | 194 kts | 61° |
| 2026-05-04 20:08 | -2.86534 | -78.94402 | 9949 ft | 219 kts | 59° |
| 2026-05-04 20:08 | -2.85951 | -78.93569 | 10113 ft | 229 kts | 52° |
| 2026-05-04 20:09 | -2.84377 | -78.92051 | 10520 ft | 244 kts | 32° |
| 2026-05-04 20:09 | -2.82775 | -78.91448 | 10872 ft | 257 kts | 12° |
| 2026-05-04 20:09 | -2.80969 | -78.91189 | 11222 ft | 265 kts | 7° |
| 2026-05-04 20:09 | -2.79108 | -78.90935 | 11553 ft | 266 kts | 8° |
| 2026-05-04 20:10 | -2.77241 | -78.90651 | 11891 ft | 281 kts | 8° |
| 2026-05-04 20:10 | -2.75244 | -78.90349 | 12231 ft | 298 kts | 8° |
| 2026-05-04 20:10 | -2.73160 | -78.90080 | 12639 ft | 305 kts | 7° |
| 2026-05-04 20:10 | -2.71039 | -78.89817 | 13066 ft | 311 kts | 7° |
| 2026-05-04 20:11 | -2.68901 | -78.89551 | 13488 ft | 314 kts | 8° |
| 2026-05-04 20:11 | -2.67487 | -78.89376 | 13765 ft | 313 kts | 9° |
| 2026-05-04 20:11 | -2.65316 | -78.89077 | 14193 ft | 314 kts | 10° |
| 2026-05-04 20:11 | -2.62396 | -78.88651 | 14765 ft | 318 kts | 8° |
| 2026-05-04 20:12 | -2.60935 | -78.88439 | 15049 ft | 321 kts | 8° |
| 2026-05-04 20:12 | -2.58737 | -78.88120 | 15487 ft | 323 kts | 8° |
| 2026-05-04 20:12 | -2.55707 | -78.87680 | 16166 ft | 333 kts | 8° |
| 2026-05-04 20:12 | -2.54161 | -78.87456 | 16501 ft | 340 kts | 8° |
| 2026-05-04 20:13 | -2.51837 | -78.87119 | 16972 ft | 347 kts | 8° |
| 2026-05-04 20:13 | -2.49429 | -78.86771 | 17373 ft | 354 kts | 9° |
| 2026-05-04 20:13 | -2.46935 | -78.86409 | 17755 ft | 361 kts | 8° |
| 2026-05-04 20:13 | -2.44426 | -78.86045 | 18136 ft | 359 kts | 8° |
| 2026-05-04 20:14 | -2.41962 | -78.85687 | 18513 ft | 357 kts | 8° |
| 2026-05-04 20:14 | -2.39543 | -78.85336 | 18883 ft | 357 kts | 8° |
| 2026-05-04 20:14 | -2.37081 | -78.84979 | 19258 ft | 359 kts | 8° |
| 2026-05-04 20:14 | -2.34559 | -78.84613 | 19641 ft | 361 kts | 8° |
| 2026-05-04 20:15 | -2.32227 | -78.83831 | 19993 ft | 363 kts | 31° |
| 2026-05-04 20:15 | -2.30346 | -78.82104 | 20379 ft | 365 kts | 55° |
| 2026-05-04 20:15 | -2.29051 | -78.79943 | 20763 ft | 369 kts | 63° |
| 2026-05-04 20:15 | -2.27872 | -78.77699 | 21134 ft | 371 kts | 63° |
| 2026-05-04 20:16 | -2.26564 | -78.75422 | 21515 ft | 372 kts | 58° |
| 2026-05-04 20:16 | -2.25178 | -78.73274 | 21885 ft | 374 kts | 57° |
| 2026-05-04 20:16 | -2.23738 | -78.71047 | 22267 ft | 376 kts | 57° |
| 2026-05-04 20:16 | -2.22322 | -78.68859 | 22640 ft | 379 kts | 57° |
| 2026-05-04 20:17 | -2.20861 | -78.66634 | 23012 ft | 381 kts | 54° |
| 2026-05-04 20:17 | -2.18900 | -78.64857 | 23374 ft | 385 kts | 31° |
| 2026-05-04 20:17 | -2.16393 | -78.63986 | 23746 ft | 391 kts | 8° |
| 2026-05-04 20:17 | -2.13661 | -78.64071 | 24138 ft | 395 kts | 353° |
| 2026-05-04 20:18 | -2.10903 | -78.64475 | 24519 ft | 398 kts | 353° |
| 2026-05-04 20:18 | -2.08153 | -78.64820 | 24892 ft | 401 kts | 353° |
| 2026-05-04 20:18 | -2.05369 | -78.65157 | 24954 ft | 401 kts | 353° |
| 2026-05-04 20:18 | -2.02652 | -78.65487 | 24946 ft | 396 kts | 353° |
| 2026-05-04 20:19 | -1.99915 | -78.65819 | 24939 ft | 392 kts | 353° |
| 2026-05-04 20:19 | -1.97186 | -78.66151 | 24984 ft | 399 kts | 354° |
| 2026-05-04 20:19 | -1.94399 | -78.66489 | 25028 ft | 405 kts | 354° |
| 2026-05-04 20:19 | -1.91626 | -78.66826 | 25036 ft | 403 kts | 353° |
| 2026-05-04 20:20 | -1.88867 | -78.67161 | 25010 ft | 397 kts | 353° |
| 2026-05-04 20:20 | -1.86127 | -78.67493 | 24987 ft | 391 kts | 353° |
| 2026-05-04 20:20 | -1.83441 | -78.67819 | 24970 ft | 391 kts | 353° |
| 2026-05-04 20:20 | -1.80753 | -78.68146 | 24957 ft | 391 kts | 353° |
| 2026-05-04 20:21 | -1.78015 | -78.68479 | 24975 ft | 397 kts | 354° |
| 2026-05-04 20:21 | -1.75288 | -78.68810 | 25017 ft | 402 kts | 353° |
| 2026-05-04 20:21 | -1.69720 | -78.69486 | 24986 ft | 392 kts | 353° |
| 2026-05-04 20:22 | -1.67068 | -78.69809 | 24971 ft | 391 kts | 353° |
| 2026-05-04 20:22 | -1.64362 | -78.70267 | 24952 ft | 392 kts | 345° |
| 2026-05-04 20:22 | -1.61732 | -78.71077 | 24953 ft | 392 kts | 344° |
| 2026-05-04 20:22 | -1.59092 | -78.71699 | 24949 ft | 394 kts | 351° |
| 2026-05-04 20:23 | -1.56371 | -78.72037 | 24957 ft | 395 kts | 356° |
| 2026-05-04 20:23 | -1.53632 | -78.72062 | 24948 ft | 391 kts | 2° |
| 2026-05-04 20:23 | -1.50912 | -78.71892 | 24941 ft | 390 kts | 5° |
| 2026-05-04 20:23 | -1.48205 | -78.71753 | 24933 ft | 390 kts | 4° |
| 2026-05-04 20:24 | -1.45482 | -78.71510 | 24930 ft | 391 kts | 6° |
| 2026-05-04 20:24 | -1.42787 | -78.71184 | 24927 ft | 390 kts | 7° |
| 2026-05-04 20:24 | -1.40126 | -78.70837 | 24927 ft | 390 kts | 7° |
| 2026-05-04 20:24 | -1.37438 | -78.70473 | 24946 ft | 388 kts | 10° |
| 2026-05-04 20:25 | -1.34764 | -78.70103 | 24965 ft | 388 kts | 11° |
| 2026-05-04 20:25 | -1.32043 | -78.69720 | 24977 ft | 388 kts | 11° |
| 2026-05-04 20:25 | -1.29426 | -78.69348 | 24978 ft | 396 kts | 9° |
| 2026-05-04 20:25 | -1.26632 | -78.68947 | 24986 ft | 401 kts | 10° |
| 2026-05-04 20:26 | -1.23863 | -78.68549 | 24986 ft | 402 kts | 10° |
| 2026-05-04 20:26 | -1.21110 | -78.68151 | 24977 ft | 398 kts | 8° |
| 2026-05-04 20:26 | -1.18419 | -78.67762 | 24800 ft | 393 kts | 11° |
| 2026-05-04 20:26 | -1.15694 | -78.67368 | 24308 ft | 391 kts | 11° |
| 2026-05-04 20:27 | -1.12996 | -78.66976 | 23828 ft | 391 kts | 10° |
| 2026-05-04 20:27 | -1.10339 | -78.66591 | 23360 ft | 392 kts | 10° |
| 2026-05-04 20:27 | -1.07611 | -78.66196 | 22880 ft | 391 kts | 10° |
| 2026-05-04 20:27 | -1.04938 | -78.65806 | 22408 ft | 390 kts | 8° |
| 2026-05-04 20:28 | -1.02249 | -78.65414 | 21915 ft | 389 kts | 8° |
| 2026-05-04 20:28 | -0.99568 | -78.65024 | 21415 ft | 387 kts | 11° |
| 2026-05-04 20:28 | -0.96976 | -78.64646 | 20927 ft | 384 kts | 11° |
| 2026-05-04 20:28 | -0.94262 | -78.64250 | 20410 ft | 384 kts | 10° |
| 2026-05-04 20:29 | -0.91668 | -78.63872 | 19918 ft | 383 kts | 10° |
| 2026-05-04 20:29 | -0.88997 | -78.63482 | 19503 ft | 379 kts | 10° |
| 2026-05-04 20:29 | -0.86442 | -78.63109 | 19411 ft | 366 kts | 8° |
| 2026-05-04 20:29 | -0.83961 | -78.62748 | 19279 ft | 355 kts | 8° |
| 2026-05-04 20:30 | -0.81570 | -78.62399 | 19208 ft | 343 kts | 8° |
| 2026-05-04 20:30 | -0.79233 | -78.62058 | 19310 ft | 328 kts | 11° |
| 2026-05-04 20:30 | -0.77003 | -78.61733 | 19458 ft | 327 kts | 8° |
| 2026-05-04 20:30 | -0.74744 | -78.61403 | 19532 ft | 333 kts | 8° |
| 2026-05-04 20:31 | -0.72428 | -78.61066 | 19415 ft | 339 kts | 8° |
| 2026-05-04 20:31 | -0.70096 | -78.60726 | 19075 ft | 337 kts | 8° |
| 2026-05-04 20:31 | -0.67791 | -78.60390 | 18704 ft | 330 kts | 8° |
| 2026-05-04 20:31 | -0.65546 | -78.60063 | 18328 ft | 323 kts | 8° |
| 2026-05-04 20:32 | -0.63341 | -78.59741 | 17950 ft | 317 kts | 8° |
| 2026-05-04 20:32 | -0.61171 | -78.59425 | 17553 ft | 313 kts | 8° |
| 2026-05-04 20:32 | -0.59028 | -78.59112 | 17101 ft | 311 kts | 8° |
| 2026-05-04 20:32 | -0.56882 | -78.58799 | 16649 ft | 309 kts | 8° |
| 2026-05-04 20:33 | -0.54763 | -78.58491 | 16201 ft | 308 kts | 8° |
| 2026-05-04 20:33 | -0.52662 | -78.58183 | 15753 ft | 306 kts | 8° |
| 2026-05-04 20:33 | -0.50553 | -78.57838 | 15300 ft | 304 kts | 10° |
| 2026-05-04 20:33 | -0.48509 | -78.57363 | 14849 ft | 302 kts | 16° |
| 2026-05-04 20:34 | -0.46535 | -78.56651 | 14398 ft | 300 kts | 23° |
| 2026-05-04 20:34 | -0.44670 | -78.55732 | 13949 ft | 298 kts | 28° |
| 2026-05-04 20:34 | -0.42853 | -78.54737 | 13499 ft | 296 kts | 28° |
| 2026-05-04 20:34 | -0.41121 | -78.53725 | 13057 ft | 294 kts | 34° |
| 2026-05-04 20:35 | -0.39398 | -78.52611 | 12603 ft | 292 kts | 33° |
| 2026-05-04 20:35 | -0.37676 | -78.51552 | 12154 ft | 290 kts | 32° |
| 2026-05-04 20:35 | -0.35955 | -78.50506 | 11701 ft | 288 kts | 31° |
| 2026-05-04 20:35 | -0.34316 | -78.49395 | 11255 ft | 286 kts | 38° |
| 2026-05-04 20:36 | -0.32950 | -78.47974 | 10785 ft | 282 kts | 57° |
| 2026-05-04 20:36 | -0.32149 | -78.46189 | 10353 ft | 279 kts | 68° |
| 2026-05-04 20:36 | -0.31325 | -78.44459 | 10104 ft | 269 kts | 64° |
| 2026-05-04 20:36 | -0.30649 | -78.42822 | 10041 ft | 252 kts | 75° |
| 2026-05-04 20:37 | -0.30425 | -78.41127 | 10038 ft | 233 kts | 88° |
| 2026-05-04 20:37 | -0.30351 | -78.39570 | 10028 ft | 214 kts | 84° |
| 2026-05-04 20:37 | -0.30067 | -78.38195 | 10005 ft | 196 kts | 71° |
| 2026-05-04 20:37 | -0.29508 | -78.37065 | 10047 ft | 170 kts | 60° |
| 2026-05-04 20:38 | -0.28750 | -78.36201 | 10029 ft | 162 kts | 44° |
| 2026-05-04 20:38 | -0.27856 | -78.35556 | 10044 ft | 159 kts | 35° |
| 2026-05-04 20:38 | -0.26818 | -78.35130 | 10068 ft | 161 kts | 20° |
| 2026-05-04 20:38 | -0.25704 | -78.34909 | 10072 ft | 166 kts | 10° |
| 2026-05-04 20:39 | -0.24533 | -78.34868 | 9952 ft | 174 kts | 1° |
| 2026-05-04 20:39 | -0.23319 | -78.34921 | 9736 ft | 176 kts | 359° |
| 2026-05-04 20:39 | -0.22081 | -78.34993 | 9506 ft | 174 kts | 360° |
| 2026-05-04 20:39 | -0.20913 | -78.35053 | 9320 ft | 166 kts | 360° |
| 2026-05-04 20:40 | -0.19781 | -78.35108 | 9107 ft | 155 kts | 359° |
| 2026-05-04 20:40 | -0.18736 | -78.35157 | 8889 ft | 147 kts | 360° |
| 2026-05-04 20:40 | -0.17706 | -78.35202 | 8678 ft | 147 kts | 359° |
| 2026-05-04 20:40 | -0.16643 | -78.35250 | 8517 ft | 158 kts | 358° |
| 2026-05-04 20:41 | -0.15557 | -78.35300 | 8296 ft | 154 kts | 358° |
| 2026-05-04 20:41 | -0.14497 | -78.35351 | 8020 ft | 151 kts | 358° |
| 2026-05-04 20:41 | -0.14399 | -78.35356 | 8000 ft | 0 kts | 358° |
| 2026-05-04 20:42 | -0.14385 | -78.35356 | 7999 ft | 14 kts | 358° |
| 2026-05-04 20:42 | -0.14189 | -78.35362 | 7999 ft | 29 kts | 359° |
| 2026-05-04 20:42 | -0.14001 | -78.35363 | 7999 ft | 25 kts | 357° |
| 2026-05-04 20:42 | -0.13845 | -78.35376 | 7999 ft | 20 kts | 358° |
| 2026-05-04 20:43 | -0.13721 | -78.35382 | 7999 ft | 16 kts | 358° |
| 2026-05-04 20:43 | -0.13596 | -78.35386 | 7999 ft | 19 kts | 358° |
| 2026-05-04 20:43 | -0.13477 | -78.35390 | 7999 ft | 15 kts | 358° |
| 2026-05-04 20:43 | -0.13383 | -78.35392 | 7999 ft | 12 kts | 358° |
| 2026-05-04 20:44 | -0.13312 | -78.35395 | 7999 ft | 8 kts | 358° |
| 2026-05-04 20:44 | -0.13264 | -78.35399 | 7999 ft | 8 kts | 353° |
| 2026-05-04 20:44 | -0.13205 | -78.35406 | 7999 ft | 8 kts | 353° |
| 2026-05-04 20:44 | -0.13122 | -78.35415 | 7999 ft | 16 kts | 354° |
| 2026-05-04 20:45 | -0.12991 | -78.35416 | 7999 ft | 22 kts | 4° |
| 2026-05-04 20:45 | -0.12820 | -78.35414 | 7999 ft | 27 kts | 356° |
| 2026-05-04 20:45 | -0.12628 | -78.35440 | 7999 ft | 26 kts | 340° |
| 2026-05-04 20:45 | -0.12489 | -78.35509 | 7999 ft | 18 kts | 321° |
| 2026-05-04 20:46 | -0.12400 | -78.35580 | 7999 ft | 15 kts | 320° |
| 2026-05-04 20:46 | -0.12357 | -78.35646 | 7999 ft | 10 kts | 278° |
| 2026-05-04 20:46 | -0.12358 | -78.35695 | 7999 ft | 6 kts | 266° |
| 2026-05-04 20:46 | -0.12360 | -78.35729 | 7999 ft | 10 kts | 266° |
| 2026-05-04 20:47 | -0.12375 | -78.35819 | 7999 ft | 13 kts | 219° |
| 2026-05-04 20:47 | -0.12428 | -78.35841 | 7999 ft | 5 kts | 207° |
| 2026-05-04 20:47 | -0.12460 | -78.35851 | 7999 ft | 8 kts | 186° |
| 2026-05-04 20:47 | -0.12547 | -78.35855 | 7999 ft | 13 kts | 181° |
| 2026-05-04 20:48 | -0.12591 | -78.35888 | 7999 ft | 6 kts | 255° |
| 2026-05-04 20:48 | -0.12593 | -78.35904 | 7999 ft | 3 kts | 262° |
| 2026-05-04 20:48 | -0.12594 | -78.35910 | 7999 ft | 0 kts | 262° |